sensor_id;sensor_type;location;lat;lon;timestamp;pressure;altitude;pressure_sealevel;temperature;humidity
68137;BME280;54939;50.826;9.030;2024-02-16T00:00:17;98498.19;;;10.24;76.35
68137;BME280;54939;50.826;9.030;2024-02-16T00:00:50;98502.69;;;10.24;76.30
68137;BME280;54939;50.826;9.030;2024-02-16T00:01:21;98507.03;;;10.25;76.41
68137;BME280;54939;50.826;9.030;2024-02-16T00:01:51;98488.69;;;10.22;76.45
68137;BME280;54939;50.826;9.030;2024-02-16T00:02:27;98499.03;;;10.25;76.56
68137;BME280;54939;50.826;9.030;2024-02-16T00:02:57;98495.53;;;10.24;76.60
68137;BME280;54939;50.826;9.030;2024-02-16T00:03:29;98497.19;;;10.25;76.59
68137;BME280;54939;50.826;9.030;2024-02-16T00:03:59;98495.53;;;10.24;76.46
68137;BME280;54939;50.826;9.030;2024-02-16T00:04:29;98494.69;;;10.24;76.69
68137;BME280;54939;50.826;9.030;2024-02-16T00:05:00;98497.19;;;10.25;76.44
68137;BME280;54939;50.826;9.030;2024-02-16T00:05:31;98499.03;;;10.25;76.44
68137;BME280;54939;50.826;9.030;2024-02-16T00:06:01;98494.53;;;10.25;76.43
68137;BME280;54939;50.826;9.030;2024-02-16T00:06:31;98491.84;;;10.25;76.35
68137;BME280;54939;50.826;9.030;2024-02-16T00:07:01;98495.38;;;10.26;76.43
68137;BME280;54939;50.826;9.030;2024-02-16T00:07:31;98497.19;;;10.25;76.28
68137;BME280;54939;50.826;9.030;2024-02-16T00:08:01;98494.69;;;10.24;76.25
68137;BME280;54939;50.826;9.030;2024-02-16T00:08:33;98489.34;;;10.24;76.42
68137;BME280;54939;50.826;9.030;2024-02-16T00:09:04;98484.00;;;10.24;76.57
68137;BME280;54939;50.826;9.030;2024-02-16T00:09:34;98488.34;;;10.25;76.50
68137;BME280;54939;50.826;9.030;2024-02-16T00:10:05;98491.03;;;10.25;76.47
68137;BME280;54939;50.826;9.030;2024-02-16T00:10:36;98488.34;;;10.25;76.46
68137;BME280;54939;50.826;9.030;2024-02-16T00:11:06;98490.19;;;10.24;76.29
68137;BME280;54939;50.826;9.030;2024-02-16T00:11:37;98489.34;;;10.24;76.27
68137;BME280;54939;50.826;9.030;2024-02-16T00:12:07;98488.34;;;10.25;76.41
68137;BME280;54939;50.826;9.030;2024-02-16T00:12:37;98487.50;;;10.24;76.46
68137;BME280;54939;50.826;9.030;2024-02-16T00:13:10;98489.19;;;10.25;76.45
68137;BME280;54939;50.826;9.030;2024-02-16T00:13:40;98491.03;;;10.25;76.68
68137;BME280;54939;50.826;9.030;2024-02-16T00:14:10;98485.69;;;10.25;76.54
68137;BME280;54939;50.826;9.030;2024-02-16T00:14:40;98485.69;;;10.25;76.42
68137;BME280;54939;50.826;9.030;2024-02-16T00:15:10;98490.19;;;10.24;76.44
68137;BME280;54939;50.826;9.030;2024-02-16T00:15:40;98490.03;;;10.26;76.37
68137;BME280;54939;50.826;9.030;2024-02-16T00:16:11;98491.03;;;10.25;76.44
68137;BME280;54939;50.826;9.030;2024-02-16T00:16:41;98493.69;;;10.25;76.48
68137;BME280;54939;50.826;9.030;2024-02-16T00:17:11;98484.84;;;10.24;76.38
68137;BME280;54939;50.826;9.030;2024-02-16T00:17:41;98486.66;;;10.24;76.38
68137;BME280;54939;50.826;9.030;2024-02-16T00:18:12;98492.84;;;10.24;76.40
68137;BME280;54939;50.826;9.030;2024-02-16T00:18:42;98498.19;;;10.24;76.23
68137;BME280;54939;50.826;9.030;2024-02-16T00:19:12;98490.19;;;10.24;76.29
68137;BME280;54939;50.826;9.030;2024-02-16T00:19:43;98487.50;;;10.24;75.96
68137;BME280;54939;50.826;9.030;2024-02-16T00:20:13;98491.03;;;10.25;76.21
68137;BME280;54939;50.826;9.030;2024-02-16T00:20:43;98497.34;;;10.24;76.28
68137;BME280;54939;50.826;9.030;2024-02-16T00:21:13;98487.50;;;10.24;76.29
68137;BME280;54939;50.826;9.030;2024-02-16T00:21:44;98489.19;;;10.25;76.46
68137;BME280;54939;50.826;9.030;2024-02-16T00:22:14;98485.69;;;10.25;76.17
68137;BME280;54939;50.826;9.030;2024-02-16T00:22:44;98493.69;;;10.25;76.10
68137;BME280;54939;50.826;9.030;2024-02-16T00:23:15;98490.19;;;10.24;76.17
68137;BME280;54939;50.826;9.030;2024-02-16T00:23:45;98489.19;;;10.25;76.55
68137;BME280;54939;50.826;9.030;2024-02-16T00:24:15;98483.84;;;10.25;76.53
68137;BME280;54939;50.826;9.030;2024-02-16T00:24:45;98488.50;;;10.23;76.28
68137;BME280;54939;50.826;9.030;2024-02-16T00:25:15;98490.19;;;10.24;76.43
68137;BME280;54939;50.826;9.030;2024-02-16T00:25:48;98491.03;;;10.25;76.35
68137;BME280;54939;50.826;9.030;2024-02-16T00:26:18;98491.03;;;10.25;76.30
68137;BME280;54939;50.826;9.030;2024-02-16T00:26:49;98491.03;;;10.25;76.28
68137;BME280;54939;50.826;9.030;2024-02-16T00:27:19;98485.69;;;10.25;76.39
68137;BME280;54939;50.826;9.030;2024-02-16T00:27:49;98488.34;;;10.25;76.36
68137;BME280;54939;50.826;9.030;2024-02-16T00:28:22;98474.19;;;10.24;76.34
68137;BME280;54939;50.826;9.030;2024-02-16T00:28:53;98478.53;;;10.25;76.46
68137;BME280;54939;50.826;9.030;2024-02-16T00:29:23;98480.34;;;10.25;76.33
68137;BME280;54939;50.826;9.030;2024-02-16T00:29:53;98475.00;;;10.25;76.35
68137;BME280;54939;50.826;9.030;2024-02-16T00:30:24;98465.34;;;10.24;76.26
68137;BME280;54939;50.826;9.030;2024-02-16T00:30:54;98468.84;;;10.24;76.29
68137;BME280;54939;50.826;9.030;2024-02-16T00:31:24;98469.81;;;10.23;76.39
68137;BME280;54939;50.826;9.030;2024-02-16T00:31:54;98468.84;;;10.24;76.39
68137;BME280;54939;50.826;9.030;2024-02-16T00:32:25;98468.00;;;10.24;76.28
68137;BME280;54939;50.826;9.030;2024-02-16T00:33:00;98462.66;;;10.24;76.33
68137;BME280;54939;50.826;9.030;2024-02-16T00:33:31;98472.50;;;10.23;76.27
68137;BME280;54939;50.826;9.030;2024-02-16T00:34:01;98465.34;;;10.24;76.43
68137;BME280;54939;50.826;9.030;2024-02-16T00:34:31;98457.31;;;10.24;76.35
68137;BME280;54939;50.826;9.030;2024-02-16T00:35:02;98460.84;;;10.24;76.42
68137;BME280;54939;50.826;9.030;2024-02-16T00:35:32;98459.16;;;10.23;76.18
68137;BME280;54939;50.826;9.030;2024-02-16T00:36:03;98461.03;;;10.23;76.40
68137;BME280;54939;50.826;9.030;2024-02-16T00:36:33;98460.00;;;10.24;76.25
68137;BME280;54939;50.826;9.030;2024-02-16T00:37:04;98459.16;;;10.23;76.41
68137;BME280;54939;50.826;9.030;2024-02-16T00:37:38;98457.31;;;10.24;76.46
68137;BME280;54939;50.826;9.030;2024-02-16T00:38:08;98456.50;;;10.23;76.12
68137;BME280;54939;50.826;9.030;2024-02-16T00:38:38;98462.66;;;10.24;76.31
68137;BME280;54939;50.826;9.030;2024-02-16T00:39:08;98459.00;;;10.25;76.38
68137;BME280;54939;50.826;9.030;2024-02-16T00:39:38;98460.00;;;10.24;76.29
68137;BME280;54939;50.826;9.030;2024-02-16T00:40:11;98454.66;;;10.24;76.38
68137;BME280;54939;50.826;9.030;2024-02-16T00:40:42;98452.84;;;10.24;76.36
68137;BME280;54939;50.826;9.030;2024-02-16T00:41:21;98445.81;;;10.23;76.45
68137;BME280;54939;50.826;9.030;2024-02-16T00:41:51;98450.16;;;10.24;76.32
68137;BME280;54939;50.826;9.030;2024-02-16T00:42:21;98452.84;;;10.24;76.30
68137;BME280;54939;50.826;9.030;2024-02-16T00:42:56;98447.69;;;10.23;76.30
68137;BME280;54939;50.826;9.030;2024-02-16T00:43:26;98451.16;;;10.23;76.36
68137;BME280;54939;50.826;9.030;2024-02-16T00:43:57;98451.16;;;10.23;76.34
68137;BME280;54939;50.826;9.030;2024-02-16T00:44:27;98445.00;;;10.23;76.43
68137;BME280;54939;50.826;9.030;2024-02-16T00:44:57;98453.81;;;10.23;76.35
68137;BME280;54939;50.826;9.030;2024-02-16T00:45:30;98458.16;;;10.24;76.45
68137;BME280;54939;50.826;9.030;2024-02-16T00:46:00;98453.81;;;10.23;76.31
68137;BME280;54939;50.826;9.030;2024-02-16T00:46:30;98452.00;;;10.24;76.31
68137;BME280;54939;50.826;9.030;2024-02-16T00:47:01;98451.16;;;10.23;76.31
68137;BME280;54939;50.826;9.030;2024-02-16T00:47:32;98446.66;;;10.24;76.32
68137;BME280;54939;50.826;9.030;2024-02-16T00:48:02;98449.31;;;10.24;76.36
68137;BME280;54939;50.826;9.030;2024-02-16T00:48:33;98441.31;;;10.24;76.49
68137;BME280;54939;50.826;9.030;2024-02-16T00:49:03;98446.66;;;10.24;76.33
68137;BME280;54939;50.826;9.030;2024-02-16T00:49:33;98443.16;;;10.23;76.35
68137;BME280;54939;50.826;9.030;2024-02-16T00:50:04;98445.66;;;10.25;76.20
68137;BME280;54939;50.826;9.030;2024-02-16T00:50:35;98442.34;;;10.23;76.22
68137;BME280;54939;50.826;9.030;2024-02-16T00:51:05;98438.66;;;10.24;76.39
68137;BME280;54939;50.826;9.030;2024-02-16T00:51:36;98444.00;;;10.24;76.35
68137;BME280;54939;50.826;9.030;2024-02-16T00:52:06;98445.00;;;10.23;76.45
68137;BME280;54939;50.826;9.030;2024-02-16T00:52:37;98440.47;;;10.23;76.31
68137;BME280;54939;50.826;9.030;2024-02-16T00:53:09;98440.47;;;10.23;76.33
68137;BME280;54939;50.826;9.030;2024-02-16T00:53:39;98441.31;;;10.24;76.33
68137;BME280;54939;50.826;9.030;2024-02-16T00:54:09;98437.00;;;10.23;76.35
68137;BME280;54939;50.826;9.030;2024-02-16T00:54:39;98438.66;;;10.24;76.26
68137;BME280;54939;50.826;9.030;2024-02-16T00:55:10;98442.16;;;10.24;76.08
68137;BME280;54939;50.826;9.030;2024-02-16T00:55:40;98442.34;;;10.23;76.16
68137;BME280;54939;50.826;9.030;2024-02-16T00:56:11;98437.81;;;10.23;76.29
68137;BME280;54939;50.826;9.030;2024-02-16T00:56:41;98437.81;;;10.23;76.16
68137;BME280;54939;50.826;9.030;2024-02-16T00:57:12;98435.16;;;10.23;76.06
68137;BME280;54939;50.826;9.030;2024-02-16T00:57:44;98437.81;;;10.23;76.29
68137;BME280;54939;50.826;9.030;2024-02-16T00:58:14;98433.50;;;10.22;76.37
68137;BME280;54939;50.826;9.030;2024-02-16T00:58:44;98438.66;;;10.24;76.40
68137;BME280;54939;50.826;9.030;2024-02-16T00:59:14;98435.16;;;10.23;76.43
68137;BME280;54939;50.826;9.030;2024-02-16T00:59:44;98436.00;;;10.24;76.31
68137;BME280;54939;50.826;9.030;2024-02-16T01:00:15;98435.16;;;10.23;76.47
68137;BME280;54939;50.826;9.030;2024-02-16T01:00:45;98437.66;;;10.25;76.35
68137;BME280;54939;50.826;9.030;2024-02-16T01:01:15;98437.66;;;10.25;76.42
68137;BME280;54939;50.826;9.030;2024-02-16T01:01:46;98433.31;;;10.24;76.33
68137;BME280;54939;50.826;9.030;2024-02-16T01:02:16;98429.66;;;10.25;76.33
68137;BME280;54939;50.826;9.030;2024-02-16T01:02:47;98436.81;;;10.24;76.38
68137;BME280;54939;50.826;9.030;2024-02-16T01:03:17;98434.16;;;10.24;76.29
68137;BME280;54939;50.826;9.030;2024-02-16T01:03:47;98433.31;;;10.24;76.14
68137;BME280;54939;50.826;9.030;2024-02-16T01:04:17;98439.50;;;10.24;76.21
68137;BME280;54939;50.826;9.030;2024-02-16T01:04:47;98432.31;;;10.25;76.11
68137;BME280;54939;50.826;9.030;2024-02-16T01:05:20;98429.81;;;10.23;76.16
68137;BME280;54939;50.826;9.030;2024-02-16T01:05:50;98430.66;;;10.24;76.16
68137;BME280;54939;50.826;9.030;2024-02-16T01:06:20;98431.69;;;10.23;76.22
68137;BME280;54939;50.826;9.030;2024-02-16T01:06:50;98422.84;;;10.22;76.31
68137;BME280;54939;50.826;9.030;2024-02-16T01:07:20;98433.31;;;10.24;76.24
68137;BME280;54939;50.826;9.030;2024-02-16T01:07:51;98432.31;;;10.25;76.18
68137;BME280;54939;50.826;9.030;2024-02-16T01:08:21;98426.34;;;10.23;76.25
68137;BME280;54939;50.826;9.030;2024-02-16T01:08:53;98429.81;;;10.23;76.23
68137;BME280;54939;50.826;9.030;2024-02-16T01:09:23;98431.69;;;10.23;76.25
68137;BME280;54939;50.826;9.030;2024-02-16T01:09:53;98437.00;;;10.23;76.05
68137;BME280;54939;50.826;9.030;2024-02-16T01:10:24;98429.00;;;10.23;76.04
68137;BME280;54939;50.826;9.030;2024-02-16T01:10:55;98428.16;;;10.22;76.22
68137;BME280;54939;50.826;9.030;2024-02-16T01:11:25;98431.69;;;10.23;76.16
68137;BME280;54939;50.826;9.030;2024-02-16T01:11:55;98435.16;;;10.23;76.19
68137;BME280;54939;50.826;9.030;2024-02-16T01:12:25;98435.16;;;10.23;76.28
68137;BME280;54939;50.826;9.030;2024-02-16T01:12:56;98431.69;;;10.23;76.27
68137;BME280;54939;50.826;9.030;2024-02-16T01:13:26;98427.16;;;10.23;76.10
68137;BME280;54939;50.826;9.030;2024-02-16T01:13:56;98434.34;;;10.23;76.13
68137;BME280;54939;50.826;9.030;2024-02-16T01:14:27;98428.16;;;10.22;76.22
68137;BME280;54939;50.826;9.030;2024-02-16T01:14:57;98429.00;;;10.23;76.08
68137;BME280;54939;50.826;9.030;2024-02-16T01:15:27;98427.31;;;10.22;76.03
68137;BME280;54939;50.826;9.030;2024-02-16T01:15:57;98432.47;;;10.23;76.16
68137;BME280;54939;50.826;9.030;2024-02-16T01:16:27;98427.16;;;10.23;76.17
68137;BME280;54939;50.826;9.030;2024-02-16T01:16:58;98429.81;;;10.23;76.30
68137;BME280;54939;50.826;9.030;2024-02-16T01:17:28;98431.69;;;10.23;76.18
68137;BME280;54939;50.826;9.030;2024-02-16T01:17:59;98430.66;;;10.24;76.19
68137;BME280;54939;50.826;9.030;2024-02-16T01:18:30;98435.16;;;10.23;76.22
68137;BME280;54939;50.826;9.030;2024-02-16T01:19:02;98427.97;;;10.24;76.40
68137;BME280;54939;50.826;9.030;2024-02-16T01:19:32;98431.50;;;10.24;76.42
68137;BME280;54939;50.826;9.030;2024-02-16T01:20:03;98424.47;;;10.23;76.34
68137;BME280;54939;50.826;9.030;2024-02-16T01:20:34;98438.66;;;10.24;76.22
68137;BME280;54939;50.826;9.030;2024-02-16T01:21:05;98430.66;;;10.24;76.29
68137;BME280;54939;50.826;9.030;2024-02-16T01:21:35;98437.00;;;10.23;76.35
68137;BME280;54939;50.826;9.030;2024-02-16T01:22:05;98438.66;;;10.24;76.20
68137;BME280;54939;50.826;9.030;2024-02-16T01:22:35;98437.81;;;10.23;76.17
68137;BME280;54939;50.826;9.030;2024-02-16T01:23:06;98433.50;;;10.22;76.35
68137;BME280;54939;50.826;9.030;2024-02-16T01:23:36;98434.16;;;10.24;76.29
68137;BME280;54939;50.826;9.030;2024-02-16T01:24:06;98432.47;;;10.23;76.24
68137;BME280;54939;50.826;9.030;2024-02-16T01:24:36;98430.66;;;10.24;76.18
68137;BME280;54939;50.826;9.030;2024-02-16T01:25:07;98434.34;;;10.23;76.24
68137;BME280;54939;50.826;9.030;2024-02-16T01:25:38;98437.66;;;10.25;76.29
68137;BME280;54939;50.826;9.030;2024-02-16T01:26:08;98440.47;;;10.23;76.02
68137;BME280;54939;50.826;9.030;2024-02-16T01:26:38;98434.34;;;10.23;76.25
68137;BME280;54939;50.826;9.030;2024-02-16T01:27:09;98431.69;;;10.23;76.25
68137;BME280;54939;50.826;9.030;2024-02-16T01:27:40;98431.69;;;10.23;76.23
68137;BME280;54939;50.826;9.030;2024-02-16T01:28:11;98434.34;;;10.23;76.18
68137;BME280;54939;50.826;9.030;2024-02-16T01:28:42;98435.16;;;10.23;76.11
68137;BME280;54939;50.826;9.030;2024-02-16T01:29:12;98435.16;;;10.23;76.42
68137;BME280;54939;50.826;9.030;2024-02-16T01:29:42;98437.81;;;10.23;76.21
68137;BME280;54939;50.826;9.030;2024-02-16T01:30:12;98433.31;;;10.24;76.29
68137;BME280;54939;50.826;9.030;2024-02-16T01:30:44;98436.81;;;10.24;76.08
68137;BME280;54939;50.826;9.030;2024-02-16T01:31:14;98447.50;;;10.24;76.26
68137;BME280;54939;50.826;9.030;2024-02-16T01:31:44;98444.81;;;10.24;76.03
68137;BME280;54939;50.826;9.030;2024-02-16T01:32:15;98441.31;;;10.24;76.11
68137;BME280;54939;50.826;9.030;2024-02-16T01:32:45;98441.31;;;10.24;76.13
68137;BME280;54939;50.826;9.030;2024-02-16T01:33:15;98434.34;;;10.23;75.96
68137;BME280;54939;50.826;9.030;2024-02-16T01:33:45;98439.69;;;10.23;76.20
68137;BME280;54939;50.826;9.030;2024-02-16T01:34:15;98437.00;;;10.23;75.97
68137;BME280;54939;50.826;9.030;2024-02-16T01:34:46;98440.47;;;10.23;76.10
68137;BME280;54939;50.826;9.030;2024-02-16T01:35:18;98441.31;;;10.24;76.16
68137;BME280;54939;50.826;9.030;2024-02-16T01:35:49;98436.81;;;10.24;76.03
68137;BME280;54939;50.826;9.030;2024-02-16T01:36:19;98441.31;;;10.24;75.94
68137;BME280;54939;50.826;9.030;2024-02-16T01:36:49;98439.69;;;10.23;76.00
68137;BME280;54939;50.826;9.030;2024-02-16T01:37:19;98438.66;;;10.24;76.16
68137;BME280;54939;50.826;9.030;2024-02-16T01:37:49;98444.00;;;10.24;76.11
68137;BME280;54939;50.826;9.030;2024-02-16T01:38:19;98432.81;;;10.20;76.11
68137;BME280;54939;50.826;9.030;2024-02-16T01:38:52;98443.16;;;10.23;76.12
68137;BME280;54939;50.826;9.030;2024-02-16T01:39:22;98443.16;;;10.23;76.00
68137;BME280;54939;50.826;9.030;2024-02-16T01:39:52;98444.00;;;10.24;76.11
68137;BME280;54939;50.826;9.030;2024-02-16T01:40:23;98444.00;;;10.24;76.18
68137;BME280;54939;50.826;9.030;2024-02-16T01:40:56;98439.50;;;10.24;76.35
68137;BME280;54939;50.826;9.030;2024-02-16T01:41:26;98434.34;;;10.23;75.94
68137;BME280;54939;50.826;9.030;2024-02-16T01:41:56;98435.00;;;10.25;76.23
68137;BME280;54939;50.826;9.030;2024-02-16T01:42:26;98436.81;;;10.24;76.16
68137;BME280;54939;50.826;9.030;2024-02-16T01:42:56;98438.66;;;10.24;76.23
68137;BME280;54939;50.826;9.030;2024-02-16T01:43:27;98444.00;;;10.24;76.04
68137;BME280;54939;50.826;9.030;2024-02-16T01:43:57;98445.00;;;10.23;76.10
68137;BME280;54939;50.826;9.030;2024-02-16T01:44:27;98436.81;;;10.24;76.29
68137;BME280;54939;50.826;9.030;2024-02-16T01:44:57;98442.16;;;10.24;76.11
68137;BME280;54939;50.826;9.030;2024-02-16T01:45:27;98437.81;;;10.23;76.11
68137;BME280;54939;50.826;9.030;2024-02-16T01:45:58;98437.00;;;10.23;76.13
68137;BME280;54939;50.826;9.030;2024-02-16T01:46:29;98437.81;;;10.23;76.34
68137;BME280;54939;50.826;9.030;2024-02-16T01:47:00;98435.16;;;10.23;76.29
68137;BME280;54939;50.826;9.030;2024-02-16T01:47:31;98437.81;;;10.23;76.24
68137;BME280;54939;50.826;9.030;2024-02-16T01:48:01;98429.81;;;10.23;76.04
68137;BME280;54939;50.826;9.030;2024-02-16T01:48:31;98429.00;;;10.23;76.23
68137;BME280;54939;50.826;9.030;2024-02-16T01:49:02;98428.16;;;10.22;76.21
68137;BME280;54939;50.826;9.030;2024-02-16T01:49:32;98431.69;;;10.23;76.13
68137;BME280;54939;50.826;9.030;2024-02-16T01:50:03;98433.31;;;10.24;76.14
68137;BME280;54939;50.826;9.030;2024-02-16T01:50:33;98423.66;;;10.23;76.08
68137;BME280;54939;50.826;9.030;2024-02-16T01:51:03;98424.66;;;10.22;76.05
68137;BME280;54939;50.826;9.030;2024-02-16T01:51:34;98422.00;;;10.22;76.08
68137;BME280;54939;50.826;9.030;2024-02-16T01:52:05;98420.16;;;10.22;76.21
68137;BME280;54939;50.826;9.030;2024-02-16T01:52:35;98426.34;;;10.23;76.13
68137;BME280;54939;50.826;9.030;2024-02-16T01:53:06;98425.50;;;10.22;76.27
68137;BME280;54939;50.826;9.030;2024-02-16T01:53:37;98422.00;;;10.22;75.97
68137;BME280;54939;50.826;9.030;2024-02-16T01:54:07;98422.00;;;10.22;76.26
68137;BME280;54939;50.826;9.030;2024-02-16T01:54:38;98421.00;;;10.23;76.33
68137;BME280;54939;50.826;9.030;2024-02-16T01:55:08;98422.00;;;10.22;76.38
68137;BME280;54939;50.826;9.030;2024-02-16T01:55:41;98419.31;;;10.22;75.91
68137;BME280;54939;50.826;9.030;2024-02-16T01:56:11;98418.34;;;10.23;76.24
68137;BME280;54939;50.826;9.030;2024-02-16T01:56:42;98416.66;;;10.22;75.93
68137;BME280;54939;50.826;9.030;2024-02-16T01:57:12;98422.84;;;10.22;76.26
68137;BME280;54939;50.826;9.030;2024-02-16T01:57:43;98419.31;;;10.22;76.07
68137;BME280;54939;50.826;9.030;2024-02-16T01:58:14;98418.34;;;10.23;76.27
68137;BME280;54939;50.826;9.030;2024-02-16T01:58:44;98414.81;;;10.22;76.27
68137;BME280;54939;50.826;9.030;2024-02-16T01:59:14;98423.66;;;10.23;76.29
68137;BME280;54939;50.826;9.030;2024-02-16T01:59:44;98421.81;;;10.23;76.21
68137;BME280;54939;50.826;9.030;2024-02-16T02:00:15;98419.97;;;10.24;76.15
68137;BME280;54939;50.826;9.030;2024-02-16T02:00:47;98423.66;;;10.23;76.04
68137;BME280;54939;50.826;9.030;2024-02-16T02:01:17;98426.16;;;10.24;76.20
68137;BME280;54939;50.826;9.030;2024-02-16T02:01:47;98425.31;;;10.24;76.07
68137;BME280;54939;50.826;9.030;2024-02-16T02:02:18;98430.66;;;10.24;76.15
68137;BME280;54939;50.826;9.030;2024-02-16T02:02:48;98430.66;;;10.24;76.13
68137;BME280;54939;50.826;9.030;2024-02-16T02:03:18;98430.66;;;10.24;75.99
68137;BME280;54939;50.826;9.030;2024-02-16T02:03:48;98421.81;;;10.23;75.92
68137;BME280;54939;50.826;9.030;2024-02-16T02:04:19;98431.69;;;10.23;76.02
68137;BME280;54939;50.826;9.030;2024-02-16T02:04:50;98427.16;;;10.23;76.00
68137;BME280;54939;50.826;9.030;2024-02-16T02:05:20;98434.34;;;10.23;75.94
68137;BME280;54939;50.826;9.030;2024-02-16T02:05:50;98434.16;;;10.24;75.89
68137;BME280;54939;50.826;9.030;2024-02-16T02:06:21;98435.16;;;10.23;76.09
68137;BME280;54939;50.826;9.030;2024-02-16T02:06:51;98432.47;;;10.23;76.17
68137;BME280;54939;50.826;9.030;2024-02-16T02:07:24;98434.16;;;10.24;76.24
68137;BME280;54939;50.826;9.030;2024-02-16T02:07:54;98436.00;;;10.24;75.99
68137;BME280;54939;50.826;9.030;2024-02-16T02:08:25;98434.16;;;10.24;76.10
68137;BME280;54939;50.826;9.030;2024-02-16T02:08:56;98427.97;;;10.24;76.09
68137;BME280;54939;50.826;9.030;2024-02-16T02:09:26;98432.47;;;10.23;76.24
68137;BME280;54939;50.826;9.030;2024-02-16T02:09:56;98438.66;;;10.24;76.11
68137;BME280;54939;50.826;9.030;2024-02-16T02:10:26;98433.31;;;10.24;76.11
68137;BME280;54939;50.826;9.030;2024-02-16T02:10:56;98431.69;;;10.23;76.20
68137;BME280;54939;50.826;9.030;2024-02-16T02:11:27;98435.16;;;10.23;76.16
68137;BME280;54939;50.826;9.030;2024-02-16T02:11:57;98440.47;;;10.23;75.98
68137;BME280;54939;50.826;9.030;2024-02-16T02:12:27;98429.81;;;10.23;76.10
68137;BME280;54939;50.826;9.030;2024-02-16T02:12:57;98435.16;;;10.23;76.05
68137;BME280;54939;50.826;9.030;2024-02-16T02:13:27;98433.50;;;10.22;76.11
68137;BME280;54939;50.826;9.030;2024-02-16T02:13:58;98438.84;;;10.22;76.20
68137;BME280;54939;50.826;9.030;2024-02-16T02:14:28;98434.34;;;10.23;75.98
68137;BME280;54939;50.826;9.030;2024-02-16T02:14:58;98433.50;;;10.22;76.09
68137;BME280;54939;50.826;9.030;2024-02-16T02:15:28;98430.84;;;10.22;76.17
68137;BME280;54939;50.826;9.030;2024-02-16T02:15:58;98435.34;;;10.22;76.28
68137;BME280;54939;50.826;9.030;2024-02-16T02:16:29;98434.34;;;10.23;76.11
68137;BME280;54939;50.826;9.030;2024-02-16T02:16:59;98435.16;;;10.23;76.01
68137;BME280;54939;50.826;9.030;2024-02-16T02:17:30;98426.16;;;10.24;76.10
68137;BME280;54939;50.826;9.030;2024-02-16T02:18:00;98427.31;;;10.22;76.20
68137;BME280;54939;50.826;9.030;2024-02-16T02:18:30;98432.47;;;10.23;75.93
68137;BME280;54939;50.826;9.030;2024-02-16T02:19:00;98425.31;;;10.24;76.09
68137;BME280;54939;50.826;9.030;2024-02-16T02:19:31;98431.50;;;10.24;76.11
68137;BME280;54939;50.826;9.030;2024-02-16T02:20:01;98430.00;;;10.22;76.21
68137;BME280;54939;50.826;9.030;2024-02-16T02:20:33;98428.16;;;10.22;76.05
68137;BME280;54939;50.826;9.030;2024-02-16T02:21:04;98431.50;;;10.24;76.24
68137;BME280;54939;50.826;9.030;2024-02-16T02:21:34;98419.13;;;10.23;75.96
68137;BME280;54939;50.826;9.030;2024-02-16T02:22:08;98429.00;;;10.23;76.23
68137;BME280;54939;50.826;9.030;2024-02-16T02:22:38;98424.47;;;10.23;75.99
68137;BME280;54939;50.826;9.030;2024-02-16T02:23:09;98419.13;;;10.23;76.09
68137;BME280;54939;50.826;9.030;2024-02-16T02:23:39;98422.66;;;10.24;76.05
68137;BME280;54939;50.826;9.030;2024-02-16T02:24:09;98423.66;;;10.23;75.99
68137;BME280;54939;50.826;9.030;2024-02-16T02:24:40;98421.00;;;10.23;76.01
68137;BME280;54939;50.826;9.030;2024-02-16T02:25:11;98418.34;;;10.23;76.14
68137;BME280;54939;50.826;9.030;2024-02-16T02:25:41;98418.34;;;10.23;76.12
68137;BME280;54939;50.826;9.030;2024-02-16T02:26:14;98423.66;;;10.23;76.18
68137;BME280;54939;50.826;9.030;2024-02-16T02:26:44;98420.16;;;10.22;76.11
68137;BME280;54939;50.826;9.030;2024-02-16T02:27:14;98416.66;;;10.22;75.96
68137;BME280;54939;50.826;9.030;2024-02-16T02:27:44;98422.66;;;10.24;76.12
68137;BME280;54939;50.826;9.030;2024-02-16T02:28:15;98419.97;;;10.24;76.11
68137;BME280;54939;50.826;9.030;2024-02-16T02:28:46;98421.00;;;10.23;75.89
68137;BME280;54939;50.826;9.030;2024-02-16T02:29:16;98426.34;;;10.23;76.01
68137;BME280;54939;50.826;9.030;2024-02-16T02:29:46;98429.00;;;10.23;76.02
68137;BME280;54939;50.826;9.030;2024-02-16T02:30:16;98424.47;;;10.23;75.99
68137;BME280;54939;50.826;9.030;2024-02-16T02:30:46;98432.47;;;10.23;75.94
68137;BME280;54939;50.826;9.030;2024-02-16T02:31:17;98423.66;;;10.23;76.00
68137;BME280;54939;50.826;9.030;2024-02-16T02:31:47;98422.66;;;10.24;76.11
68137;BME280;54939;50.826;9.030;2024-02-16T02:32:17;98430.66;;;10.24;75.82
68137;BME280;54939;50.826;9.030;2024-02-16T02:32:47;98427.97;;;10.24;75.89
68137;BME280;54939;50.826;9.030;2024-02-16T02:33:18;98426.34;;;10.23;76.08
68137;BME280;54939;50.826;9.030;2024-02-16T02:33:49;98426.34;;;10.23;76.17
68137;BME280;54939;50.826;9.030;2024-02-16T02:34:20;98424.47;;;10.23;76.11
68137;BME280;54939;50.826;9.030;2024-02-16T02:34:50;98423.66;;;10.23;75.96
68137;BME280;54939;50.826;9.030;2024-02-16T02:35:20;98424.47;;;10.23;75.91
68137;BME280;54939;50.826;9.030;2024-02-16T02:35:50;98426.34;;;10.23;76.02
68137;BME280;54939;50.826;9.030;2024-02-16T02:36:21;98417.50;;;10.22;76.08
68137;BME280;54939;50.826;9.030;2024-02-16T02:36:51;98419.31;;;10.22;76.02
68137;BME280;54939;50.826;9.030;2024-02-16T02:37:22;98416.66;;;10.22;76.13
68137;BME280;54939;50.826;9.030;2024-02-16T02:37:52;98424.66;;;10.22;75.77
68137;BME280;54939;50.826;9.030;2024-02-16T02:38:22;98422.00;;;10.22;75.93
68137;BME280;54939;50.826;9.030;2024-02-16T02:38:53;98415.81;;;10.21;75.87
68137;BME280;54939;50.826;9.030;2024-02-16T02:39:23;98417.50;;;10.22;76.01
68137;BME280;54939;50.826;9.030;2024-02-16T02:39:53;98424.66;;;10.22;76.04
68137;BME280;54939;50.826;9.030;2024-02-16T02:40:23;98418.50;;;10.21;76.12
68137;BME280;54939;50.826;9.030;2024-02-16T02:40:54;98422.00;;;10.22;76.08
68137;BME280;54939;50.826;9.030;2024-02-16T02:41:24;98420.16;;;10.22;76.01
68137;BME280;54939;50.826;9.030;2024-02-16T02:41:54;98417.50;;;10.22;76.11